sensor_id;sensor_type;location;lat;lon;timestamp;P1;durP1;ratioP1;P2;durP2;ratioP2
27209;SDS011;14721;42.668;23.386;2023-07-22T00:00:25;6.28;;;3.42;;
27209;SDS011;14721;42.668;23.386;2023-07-22T00:02:51;8.95;;;3.92;;
27209;SDS011;14721;42.668;23.386;2023-07-22T00:05:17;9.07;;;4.88;;
27209;SDS011;14721;42.668;23.386;2023-07-22T00:07:49;5.97;;;3.50;;
27209;SDS011;14721;42.668;23.386;2023-07-22T00:10:15;10.02;;;4.15;;
27209;SDS011;14721;42.668;23.386;2023-07-22T00:12:40;7.28;;;3.55;;
27209;SDS011;14721;42.668;23.386;2023-07-22T00:15:06;15.82;;;8.32;;
27209;SDS011;14721;42.668;23.386;2023-07-22T00:17:32;12.63;;;5.80;;
27209;SDS011;14721;42.668;23.386;2023-07-22T00:19:58;8.68;;;4.20;;
27209;SDS011;14721;42.668;23.386;2023-07-22T00:22:25;8.02;;;3.90;;
27209;SDS011;14721;42.668;23.386;2023-07-22T00:24:52;10.13;;;4.18;;
27209;SDS011;14721;42.668;23.386;2023-07-22T00:27:17;9.60;;;4.43;;
27209;SDS011;14721;42.668;23.386;2023-07-22T00:29:43;12.45;;;4.55;;
27209;SDS011;14721;42.668;23.386;2023-07-22T00:32:08;7.95;;;4.00;;
27209;SDS011;14721;42.668;23.386;2023-07-22T00:34:34;14.27;;;4.88;;
27209;SDS011;14721;42.668;23.386;2023-07-22T00:37:00;6.88;;;3.85;;
27209;SDS011;14721;42.668;23.386;2023-07-22T00:39:26;8.07;;;4.00;;
27209;SDS011;14721;42.668;23.386;2023-07-22T00:41:51;8.15;;;3.65;;
27209;SDS011;14721;42.668;23.386;2023-07-22T00:44:17;9.00;;;4.05;;
27209;SDS011;14721;42.668;23.386;2023-07-22T00:46:42;7.88;;;4.40;;
27209;SDS011;14721;42.668;23.386;2023-07-22T00:49:08;10.85;;;3.90;;
27209;SDS011;14721;42.668;23.386;2023-07-22T00:51:35;6.47;;;3.90;;
27209;SDS011;14721;42.668;23.386;2023-07-22T00:54:00;8.75;;;4.15;;
27209;SDS011;14721;42.668;23.386;2023-07-22T00:56:26;7.50;;;4.00;;
27209;SDS011;14721;42.668;23.386;2023-07-22T00:58:52;10.48;;;4.20;;
27209;SDS011;14721;42.668;23.386;2023-07-22T01:01:17;9.98;;;4.47;;
27209;SDS011;14721;42.668;23.386;2023-07-22T01:03:43;7.30;;;4.35;;
27209;SDS011;14721;42.668;23.386;2023-07-22T01:06:11;9.27;;;4.13;;
27209;SDS011;14721;42.668;23.386;2023-07-22T01:08:38;6.53;;;3.53;;
27209;SDS011;14721;42.668;23.386;2023-07-22T01:11:04;6.63;;;4.25;;
27209;SDS011;14721;42.668;23.386;2023-07-22T01:13:31;7.65;;;4.30;;
27209;SDS011;14721;42.668;23.386;2023-07-22T01:15:56;7.80;;;5.00;;
27209;SDS011;14721;42.668;23.386;2023-07-22T01:18:23;8.38;;;4.53;;
27209;SDS011;14721;42.668;23.386;2023-07-22T01:20:48;6.88;;;4.35;;
27209;SDS011;14721;42.668;23.386;2023-07-22T01:23:14;6.95;;;4.97;;
27209;SDS011;14721;42.668;23.386;2023-07-22T01:25:40;9.93;;;3.95;;
27209;SDS011;14721;42.668;23.386;2023-07-22T01:28:09;9.13;;;4.57;;
27209;SDS011;14721;42.668;23.386;2023-07-22T01:30:36;6.18;;;4.03;;
27209;SDS011;14721;42.668;23.386;2023-07-22T01:33:01;7.05;;;4.00;;
27209;SDS011;14721;42.668;23.386;2023-07-22T01:35:27;8.45;;;4.63;;
27209;SDS011;14721;42.668;23.386;2023-07-22T01:37:53;11.32;;;4.47;;
27209;SDS011;14721;42.668;23.386;2023-07-22T01:40:18;9.02;;;4.28;;
27209;SDS011;14721;42.668;23.386;2023-07-22T01:42:44;8.07;;;4.47;;
27209;SDS011;14721;42.668;23.386;2023-07-22T01:45:10;9.70;;;4.00;;
27209;SDS011;14721;42.668;23.386;2023-07-22T01:47:36;9.48;;;4.72;;
27209;SDS011;14721;42.668;23.386;2023-07-22T01:50:03;12.95;;;5.32;;
27209;SDS011;14721;42.668;23.386;2023-07-22T01:52:31;8.57;;;4.18;;
27209;SDS011;14721;42.668;23.386;2023-07-22T01:54:57;9.25;;;4.40;;
27209;SDS011;14721;42.668;23.386;2023-07-22T01:57:23;6.38;;;3.97;;
27209;SDS011;14721;42.668;23.386;2023-07-22T01:59:49;10.50;;;4.30;;
27209;SDS011;14721;42.668;23.386;2023-07-22T02:02:14;10.50;;;4.47;;
27209;SDS011;14721;42.668;23.386;2023-07-22T02:04:40;10.90;;;4.35;;
27209;SDS011;14721;42.668;23.386;2023-07-22T02:07:05;8.68;;;4.03;;
27209;SDS011;14721;42.668;23.386;2023-07-22T02:09:34;12.70;;;4.90;;
27209;SDS011;14721;42.668;23.386;2023-07-22T02:12:00;9.38;;;4.30;;
27209;SDS011;14721;42.668;23.386;2023-07-22T02:14:25;9.85;;;4.53;;
27209;SDS011;14721;42.668;23.386;2023-07-22T02:16:51;8.40;;;4.65;;
27209;SDS011;14721;42.668;23.386;2023-07-22T02:19:16;7.40;;;4.15;;
27209;SDS011;14721;42.668;23.386;2023-07-22T02:21:42;8.15;;;4.65;;
27209;SDS011;14721;42.668;23.386;2023-07-22T02:24:07;7.15;;;4.25;;
27209;SDS011;14721;42.668;23.386;2023-07-22T02:26:33;10.07;;;4.80;;
27209;SDS011;14721;42.668;23.386;2023-07-22T02:28:59;9.35;;;5.28;;
27209;SDS011;14721;42.668;23.386;2023-07-22T02:31:24;9.25;;;4.57;;
27209;SDS011;14721;42.668;23.386;2023-07-22T02:33:50;9.20;;;5.75;;
27209;SDS011;14721;42.668;23.386;2023-07-22T02:36:16;11.32;;;5.28;;
27209;SDS011;14721;42.668;23.386;2023-07-22T02:38:42;11.73;;;6.70;;
27209;SDS011;14721;42.668;23.386;2023-07-22T02:41:07;8.43;;;4.70;;
27209;SDS011;14721;42.668;23.386;2023-07-22T02:43:33;8.88;;;5.20;;
27209;SDS011;14721;42.668;23.386;2023-07-22T02:46:03;12.25;;;5.78;;
27209;SDS011;14721;42.668;23.386;2023-07-22T02:48:32;9.45;;;4.95;;
27209;SDS011;14721;42.668;23.386;2023-07-22T02:51:08;15.35;;;5.00;;
27209;SDS011;14721;42.668;23.386;2023-07-22T02:53:35;7.38;;;5.60;;
27209;SDS011;14721;42.668;23.386;2023-07-22T02:56:02;8.85;;;5.45;;
27209;SDS011;14721;42.668;23.386;2023-07-22T02:58:28;8.27;;;5.05;;
27209;SDS011;14721;42.668;23.386;2023-07-22T03:00:53;11.85;;;5.60;;
27209;SDS011;14721;42.668;23.386;2023-07-22T03:03:19;9.73;;;5.25;;
27209;SDS011;14721;42.668;23.386;2023-07-22T03:05:44;8.70;;;5.53;;
27209;SDS011;14721;42.668;23.386;2023-07-22T03:08:10;12.90;;;6.15;;
27209;SDS011;14721;42.668;23.386;2023-07-22T03:10:36;10.15;;;5.45;;
27209;SDS011;14721;42.668;23.386;2023-07-22T03:13:02;8.57;;;5.05;;
27209;SDS011;14721;42.668;23.386;2023-07-22T03:15:28;10.85;;;4.97;;
27209;SDS011;14721;42.668;23.386;2023-07-22T03:17:54;7.95;;;4.88;;
27209;SDS011;14721;42.668;23.386;2023-07-22T03:20:21;7.25;;;4.63;;
27209;SDS011;14721;42.668;23.386;2023-07-22T03:22:48;8.23;;;4.68;;
27209;SDS011;14721;42.668;23.386;2023-07-22T03:25:14;13.55;;;6.28;;
27209;SDS011;14721;42.668;23.386;2023-07-22T03:27:42;10.95;;;6.10;;
27209;SDS011;14721;42.668;23.386;2023-07-22T03:30:10;11.52;;;6.25;;
27209;SDS011;14721;42.668;23.386;2023-07-22T03:32:40;11.13;;;5.18;;
27209;SDS011;14721;42.668;23.386;2023-07-22T03:35:07;11.07;;;5.30;;
27209;SDS011;14721;42.668;23.386;2023-07-22T03:37:35;8.75;;;4.57;;
27209;SDS011;14721;42.668;23.386;2023-07-22T03:40:02;9.13;;;4.93;;
27209;SDS011;14721;42.668;23.386;2023-07-22T03:42:45;8.50;;;4.93;;
27209;SDS011;14721;42.668;23.386;2023-07-22T03:45:12;8.43;;;5.55;;
27209;SDS011;14721;42.668;23.386;2023-07-22T03:47:38;11.27;;;5.22;;
27209;SDS011;14721;42.668;23.386;2023-07-22T03:50:04;10.27;;;4.63;;
27209;SDS011;14721;42.668;23.386;2023-07-22T03:52:31;10.27;;;4.53;;
27209;SDS011;14721;42.668;23.386;2023-07-22T03:54:56;7.88;;;4.90;;
27209;SDS011;14721;42.668;23.386;2023-07-22T03:57:26;8.05;;;4.78;;
27209;SDS011;14721;42.668;23.386;2023-07-22T03:59:55;8.70;;;4.55;;
27209;SDS011;14721;42.668;23.386;2023-07-22T04:02:21;9.00;;;4.43;;
27209;SDS011;14721;42.668;23.386;2023-07-22T04:04:47;9.80;;;4.72;;
27209;SDS011;14721;42.668;23.386;2023-07-22T04:07:13;6.30;;;4.70;;
27209;SDS011;14721;42.668;23.386;2023-07-22T04:09:38;10.82;;;4.93;;
27209;SDS011;14721;42.668;23.386;2023-07-22T04:12:05;8.00;;;5.20;;
27209;SDS011;14721;42.668;23.386;2023-07-22T04:14:32;9.38;;;4.40;;
27209;SDS011;14721;42.668;23.386;2023-07-22T04:16:57;8.50;;;4.57;;
27209;SDS011;14721;42.668;23.386;2023-07-22T04:19:23;8.00;;;4.65;;
27209;SDS011;14721;42.668;23.386;2023-07-22T04:21:49;9.55;;;4.32;;
27209;SDS011;14721;42.668;23.386;2023-07-22T04:24:14;9.80;;;4.35;;
27209;SDS011;14721;42.668;23.386;2023-07-22T04:26:41;10.95;;;4.97;;
27209;SDS011;14721;42.668;23.386;2023-07-22T04:29:08;7.65;;;4.75;;
27209;SDS011;14721;42.668;23.386;2023-07-22T04:31:34;7.63;;;4.70;;
27209;SDS011;14721;42.668;23.386;2023-07-22T04:34:00;7.72;;;4.95;;
27209;SDS011;14721;42.668;23.386;2023-07-22T04:36:25;9.02;;;4.85;;
27209;SDS011;14721;42.668;23.386;2023-07-22T04:38:51;10.93;;;5.68;;
27209;SDS011;14721;42.668;23.386;2023-07-22T04:41:17;6.47;;;3.95;;
27209;SDS011;14721;42.668;23.386;2023-07-22T04:43:43;9.13;;;5.03;;
27209;SDS011;14721;42.668;23.386;2023-07-22T04:46:08;8.95;;;4.60;;
27209;SDS011;14721;42.668;23.386;2023-07-22T04:48:34;9.15;;;4.63;;
27209;SDS011;14721;42.668;23.386;2023-07-22T04:51:02;12.73;;;4.65;;
27209;SDS011;14721;42.668;23.386;2023-07-22T04:53:28;16.25;;;5.43;;
27209;SDS011;14721;42.668;23.386;2023-07-22T04:55:54;11.73;;;5.45;;
27209;SDS011;14721;42.668;23.386;2023-07-22T04:58:20;9.57;;;5.03;;
27209;SDS011;14721;42.668;23.386;2023-07-22T05:00:46;8.15;;;4.75;;
27209;SDS011;14721;42.668;23.386;2023-07-22T05:03:13;8.95;;;5.13;;
27209;SDS011;14721;42.668;23.386;2023-07-22T05:05:39;12.32;;;5.05;;
27209;SDS011;14721;42.668;23.386;2023-07-22T05:08:05;10.10;;;5.30;;
27209;SDS011;14721;42.668;23.386;2023-07-22T05:10:32;7.38;;;4.65;;
27209;SDS011;14721;42.668;23.386;2023-07-22T05:12:58;7.13;;;5.10;;
27209;SDS011;14721;42.668;23.386;2023-07-22T05:15:24;9.27;;;4.90;;
27209;SDS011;14721;42.668;23.386;2023-07-22T05:17:50;11.32;;;5.10;;
27209;SDS011;14721;42.668;23.386;2023-07-22T05:20:16;9.98;;;5.50;;
27209;SDS011;14721;42.668;23.386;2023-07-22T05:22:42;9.00;;;5.03;;
27209;SDS011;14721;42.668;23.386;2023-07-22T05:25:08;9.30;;;5.18;;
27209;SDS011;14721;42.668;23.386;2023-07-22T05:27:35;8.27;;;5.15;;
27209;SDS011;14721;42.668;23.386;2023-07-22T05:30:00;11.02;;;5.68;;
27209;SDS011;14721;42.668;23.386;2023-07-22T05:32:28;10.68;;;5.32;;
27209;SDS011;14721;42.668;23.386;2023-07-22T05:34:55;8.68;;;5.13;;
27209;SDS011;14721;42.668;23.386;2023-07-22T05:37:21;8.13;;;5.32;;
27209;SDS011;14721;42.668;23.386;2023-07-22T05:39:47;11.95;;;6.35;;
27209;SDS011;14721;42.668;23.386;2023-07-22T05:42:13;13.20;;;5.95;;
27209;SDS011;14721;42.668;23.386;2023-07-22T05:44:39;8.98;;;5.65;;
27209;SDS011;14721;42.668;23.386;2023-07-22T05:47:04;19.60;;;6.07;;
27209;SDS011;14721;42.668;23.386;2023-07-22T05:49:30;9.15;;;6.05;;
27209;SDS011;14721;42.668;23.386;2023-07-22T05:51:56;11.88;;;7.63;;
27209;SDS011;14721;42.668;23.386;2023-07-22T05:54:22;12.27;;;6.65;;
27209;SDS011;14721;42.668;23.386;2023-07-22T05:56:47;8.43;;;5.88;;
27209;SDS011;14721;42.668;23.386;2023-07-22T05:59:13;9.90;;;6.13;;
27209;SDS011;14721;42.668;23.386;2023-07-22T06:01:39;14.48;;;6.15;;
27209;SDS011;14721;42.668;23.386;2023-07-22T06:04:04;9.18;;;5.20;;
27209;SDS011;14721;42.668;23.386;2023-07-22T06:06:30;15.80;;;5.95;;
27209;SDS011;14721;42.668;23.386;2023-07-22T06:08:56;17.00;;;6.53;;
27209;SDS011;14721;42.668;23.386;2023-07-22T06:11:22;14.27;;;6.03;;
27209;SDS011;14721;42.668;23.386;2023-07-22T06:13:47;12.15;;;6.20;;
27209;SDS011;14721;42.668;23.386;2023-07-22T06:16:13;12.20;;;5.68;;
27209;SDS011;14721;42.668;23.386;2023-07-22T06:18:39;10.07;;;5.72;;
27209;SDS011;14721;42.668;23.386;2023-07-22T06:21:05;10.35;;;5.93;;
27209;SDS011;14721;42.668;23.386;2023-07-22T06:23:30;9.40;;;5.82;;
27209;SDS011;14721;42.668;23.386;2023-07-22T06:25:56;8.18;;;5.40;;
27209;SDS011;14721;42.668;23.386;2023-07-22T06:28:21;12.23;;;5.35;;
27209;SDS011;14721;42.668;23.386;2023-07-22T06:30:47;11.77;;;5.88;;
27209;SDS011;14721;42.668;23.386;2023-07-22T06:33:13;10.13;;;6.28;;
27209;SDS011;14721;42.668;23.386;2023-07-22T06:35:38;8.75;;;5.18;;
27209;SDS011;14721;42.668;23.386;2023-07-22T06:38:04;14.93;;;6.25;;
27209;SDS011;14721;42.668;23.386;2023-07-22T06:40:29;11.40;;;5.80;;
27209;SDS011;14721;42.668;23.386;2023-07-22T06:42:55;9.45;;;5.95;;
27209;SDS011;14721;42.668;23.386;2023-07-22T06:45:20;8.25;;;6.05;;
27209;SDS011;14721;42.668;23.386;2023-07-22T06:47:46;11.85;;;5.72;;
27209;SDS011;14721;42.668;23.386;2023-07-22T06:50:12;12.68;;;6.50;;
27209;SDS011;14721;42.668;23.386;2023-07-22T06:52:37;8.75;;;5.38;;
27209;SDS011;14721;42.668;23.386;2023-07-22T06:55:03;11.13;;;5.60;;
27209;SDS011;14721;42.668;23.386;2023-07-22T06:57:29;9.73;;;5.57;;
27209;SDS011;14721;42.668;23.386;2023-07-22T06:59:54;10.55;;;5.45;;
27209;SDS011;14721;42.668;23.386;2023-07-22T07:02:20;9.60;;;5.05;;
27209;SDS011;14721;42.668;23.386;2023-07-22T07:04:46;9.93;;;6.05;;
27209;SDS011;14721;42.668;23.386;2023-07-22T07:07:12;9.80;;;6.10;;
27209;SDS011;14721;42.668;23.386;2023-07-22T07:09:38;19.77;;;11.88;;
27209;SDS011;14721;42.668;23.386;2023-07-22T07:12:04;9.60;;;5.40;;
27209;SDS011;14721;42.668;23.386;2023-07-22T07:14:30;10.57;;;5.38;;
27209;SDS011;14721;42.668;23.386;2023-07-22T07:16:57;24.45;;;14.00;;
27209;SDS011;14721;42.668;23.386;2023-07-22T07:19:22;25.65;;;12.40;;
27209;SDS011;14721;42.668;23.386;2023-07-22T07:21:48;12.43;;;5.95;;
27209;SDS011;14721;42.668;23.386;2023-07-22T07:24:14;10.52;;;6.20;;
27209;SDS011;14721;42.668;23.386;2023-07-22T07:26:40;14.90;;;9.23;;
27209;SDS011;14721;42.668;23.386;2023-07-22T07:29:05;11.52;;;6.50;;
27209;SDS011;14721;42.668;23.386;2023-07-22T07:31:31;11.13;;;7.80;;
27209;SDS011;14721;42.668;23.386;2023-07-22T07:33:56;9.80;;;6.40;;
27209;SDS011;14721;42.668;23.386;2023-07-22T07:36:22;12.13;;;8.02;;
27209;SDS011;14721;42.668;23.386;2023-07-22T07:38:48;39.03;;;12.15;;
27209;SDS011;14721;42.668;23.386;2023-07-22T07:41:13;13.77;;;7.25;;
27209;SDS011;14721;42.668;23.386;2023-07-22T07:43:42;11.88;;;6.68;;
27209;SDS011;14721;42.668;23.386;2023-07-22T07:46:18;15.75;;;7.07;;
27209;SDS011;14721;42.668;23.386;2023-07-22T07:48:45;11.02;;;6.65;;
27209;SDS011;14721;42.668;23.386;2023-07-22T07:51:15;12.30;;;6.03;;
27209;SDS011;14721;42.668;23.386;2023-07-22T07:53:43;16.20;;;9.93;;
27209;SDS011;14721;42.668;23.386;2023-07-22T07:56:10;20.40;;;12.73;;
27209;SDS011;14721;42.668;23.386;2023-07-22T07:58:37;14.38;;;7.53;;
27209;SDS011;14721;42.668;23.386;2023-07-22T08:01:03;9.95;;;6.88;;
27209;SDS011;14721;42.668;23.386;2023-07-22T08:03:29;13.65;;;7.20;;
27209;SDS011;14721;42.668;23.386;2023-07-22T08:05:55;12.73;;;8.38;;
27209;SDS011;14721;42.668;23.386;2023-07-22T08:08:21;11.93;;;7.53;;
27209;SDS011;14721;42.668;23.386;2023-07-22T08:10:47;16.25;;;10.32;;
27209;SDS011;14721;42.668;23.386;2023-07-22T08:13:21;22.92;;;14.65;;
27209;SDS011;14721;42.668;23.386;2023-07-22T08:15:47;22.05;;;16.95;;
27209;SDS011;14721;42.668;23.386;2023-07-22T08:18:13;25.02;;;16.27;;
27209;SDS011;14721;42.668;23.386;2023-07-22T08:20:39;13.73;;;7.75;;
27209;SDS011;14721;42.668;23.386;2023-07-22T08:23:05;23.00;;;12.88;;
27209;SDS011;14721;42.668;23.386;2023-07-22T08:25:31;11.43;;;8.25;;
27209;SDS011;14721;42.668;23.386;2023-07-22T08:27:56;14.15;;;8.07;;
27209;SDS011;14721;42.668;23.386;2023-07-22T08:30:21;10.63;;;7.40;;
27209;SDS011;14721;42.668;23.386;2023-07-22T08:32:47;25.17;;;15.25;;
27209;SDS011;14721;42.668;23.386;2023-07-22T08:35:14;14.02;;;8.13;;
27209;SDS011;14721;42.668;23.386;2023-07-22T08:37:42;16.05;;;8.93;;
27209;SDS011;14721;42.668;23.386;2023-07-22T08:40:08;16.63;;;8.27;;
27209;SDS011;14721;42.668;23.386;2023-07-22T08:42:34;17.00;;;10.18;;
27209;SDS011;14721;42.668;23.386;2023-07-22T08:45:01;24.10;;;10.82;;
27209;SDS011;14721;42.668;23.386;2023-07-22T08:47:29;12.50;;;6.97;;
27209;SDS011;14721;42.668;23.386;2023-07-22T08:49:57;14.05;;;7.80;;
27209;SDS011;14721;42.668;23.386;2023-07-22T08:52:26;16.23;;;8.90;;
27209;SDS011;14721;42.668;23.386;2023-07-22T08:54:52;15.50;;;6.53;;
27209;SDS011;14721;42.668;23.386;2023-07-22T08:57:18;17.67;;;12.15;;
27209;SDS011;14721;42.668;23.386;2023-07-22T08:59:44;13.20;;;9.52;;
27209;SDS011;14721;42.668;23.386;2023-07-22T09:02:12;10.32;;;6.97;;
27209;SDS011;14721;42.668;23.386;2023-07-22T09:04:39;15.02;;;8.18;;
27209;SDS011;14721;42.668;23.386;2023-07-22T09:07:07;16.58;;;9.75;;
27209;SDS011;14721;42.668;23.386;2023-07-22T09:09:33;12.00;;;7.75;;
27209;SDS011;14721;42.668;23.386;2023-07-22T09:12:00;13.95;;;7.13;;
27209;SDS011;14721;42.668;23.386;2023-07-22T09:14:26;12.07;;;6.82;;
27209;SDS011;14721;42.668;23.386;2023-07-22T09:16:55;17.35;;;6.95;;
27209;SDS011;14721;42.668;23.386;2023-07-22T09:19:20;16.70;;;6.70;;
27209;SDS011;14721;42.668;23.386;2023-07-22T09:21:46;14.70;;;6.78;;
27209;SDS011;14721;42.668;23.386;2023-07-22T09:24:21;14.25;;;6.80;;
27209;SDS011;14721;42.668;23.386;2023-07-22T09:26:48;16.33;;;7.30;;
27209;SDS011;14721;42.668;23.386;2023-07-22T09:29:14;13.18;;;7.93;;
27209;SDS011;14721;42.668;23.386;2023-07-22T09:31:50;13.07;;;7.10;;
27209;SDS011;14721;42.668;23.386;2023-07-22T09:34:17;15.23;;;7.45;;
27209;SDS011;14721;42.668;23.386;2023-07-22T09:36:54;11.88;;;6.95;;
27209;SDS011;14721;42.668;23.386;2023-07-22T09:39:21;11.50;;;7.15;;
27209;SDS011;14721;42.668;23.386;2023-07-22T09:41:50;11.45;;;6.28;;
27209;SDS011;14721;42.668;23.386;2023-07-22T09:44:17;14.50;;;8.02;;
27209;SDS011;14721;42.668;23.386;2023-07-22T09:46:46;11.70;;;6.90;;
27209;SDS011;14721;42.668;23.386;2023-07-22T09:49:15;13.77;;;7.47;;
27209;SDS011;14721;42.668;23.386;2023-07-22T09:51:42;13.38;;;6.82;;
27209;SDS011;14721;42.668;23.386;2023-07-22T09:54:07;21.48;;;7.57;;
27209;SDS011;14721;42.668;23.386;2023-07-22T09:56:44;15.98;;;7.40;;
27209;SDS011;14721;42.668;23.386;2023-07-22T09:59:11;13.43;;;6.78;;
27209;SDS011;14721;42.668;23.386;2023-07-22T10:01:40;16.00;;;6.75;;
27209;SDS011;14721;42.668;23.386;2023-07-22T10:04:06;16.60;;;7.72;;
27209;SDS011;14721;42.668;23.386;2023-07-22T10:06:33;19.50;;;7.53;;
27209;SDS011;14721;42.668;23.386;2023-07-22T10:09:03;10.45;;;6.75;;
27209;SDS011;14721;42.668;23.386;2023-07-22T10:11:33;13.27;;;7.40;;
27209;SDS011;14721;42.668;23.386;2023-07-22T10:13:59;13.90;;;7.65;;
27209;SDS011;14721;42.668;23.386;2023-07-22T10:16:26;15.30;;;7.55;;
27209;SDS011;14721;42.668;23.386;2023-07-22T10:18:53;24.67;;;7.20;;
27209;SDS011;14721;42.668;23.386;2023-07-22T10:21:19;15.50;;;6.80;;
27209;SDS011;14721;42.668;23.386;2023-07-22T10:23:46;12.02;;;7.72;;
27209;SDS011;14721;42.668;23.386;2023-07-22T10:26:15;21.85;;;7.93;;
27209;SDS011;14721;42.668;23.386;2023-07-22T10:28:42;14.50;;;7.07;;
27209;SDS011;14721;42.668;23.386;2023-07-22T10:31:09;11.80;;;6.25;;
27209;SDS011;14721;42.668;23.386;2023-07-22T10:33:38;14.10;;;5.93;;
27209;SDS011;14721;42.668;23.386;2023-07-22T10:38:34;14.38;;;7.00;;
27209;SDS011;14721;42.668;23.386;2023-07-22T10:41:01;23.80;;;6.85;;
27209;SDS011;14721;42.668;23.386;2023-07-22T10:43:36;12.23;;;6.20;;
27209;SDS011;14721;42.668;23.386;2023-07-22T10:46:20;11.68;;;7.00;;
27209;SDS011;14721;42.668;23.386;2023-07-22T10:49:08;18.20;;;6.22;;
27209;SDS011;14721;42.668;23.386;2023-07-22T10:51:35;20.33;;;6.85;;
27209;SDS011;14721;42.668;23.386;2023-07-22T10:54:02;14.90;;;7.13;;
27209;SDS011;14721;42.668;23.386;2023-07-22T10:56:28;18.27;;;5.60;;
27209;SDS011;14721;42.668;23.386;2023-07-22T11:01:22;21.10;;;5.38;;
27209;SDS011;14721;42.668;23.386;2023-07-22T11:06:58;17.15;;;4.78;;
27209;SDS011;14721;42.668;23.386;2023-07-22T11:12:05;15.65;;;5.75;;
27209;SDS011;14721;42.668;23.386;2023-07-22T11:14:46;15.63;;;4.72;;
27209;SDS011;14721;42.668;23.386;2023-07-22T11:17:14;19.42;;;6.20;;
27209;SDS011;14721;42.668;23.386;2023-07-22T11:19:40;18.50;;;5.30;;
27209;SDS011;14721;42.668;23.386;2023-07-22T11:22:06;15.05;;;5.28;;
27209;SDS011;14721;42.668;23.386;2023-07-22T11:24:33;19.63;;;5.30;;
27209;SDS011;14721;42.668;23.386;2023-07-22T11:27:02;17.15;;;5.72;;
27209;SDS011;14721;42.668;23.386;2023-07-22T11:29:29;19.33;;;5.78;;
27209;SDS011;14721;42.668;23.386;2023-07-22T11:31:55;29.00;;;5.03;;
27209;SDS011;14721;42.668;23.386;2023-07-22T11:34:22;19.38;;;5.10;;
27209;SDS011;14721;42.668;23.386;2023-07-22T11:36:49;20.60;;;6.28;;
27209;SDS011;14721;42.668;23.386;2023-07-22T11:39:17;17.70;;;5.78;;
27209;SDS011;14721;42.668;23.386;2023-07-22T11:41:44;15.48;;;5.13;;
27209;SDS011;14721;42.668;23.386;2023-07-22T11:44:11;20.75;;;6.15;;
27209;SDS011;14721;42.668;23.386;2023-07-22T11:49:34;23.58;;;6.38;;
27209;SDS011;14721;42.668;23.386;2023-07-22T11:52:02;14.68;;;5.35;;
27209;SDS011;14721;42.668;23.386;2023-07-22T11:54:28;20.67;;;5.15;;
27209;SDS011;14721;42.668;23.386;2023-07-22T11:56:55;16.35;;;6.18;;
27209;SDS011;14721;42.668;23.386;2023-07-22T11:59:37;17.45;;;5.68;;
27209;SDS011;14721;42.668;23.386;2023-07-22T12:02:04;17.15;;;6.28;;
27209;SDS011;14721;42.668;23.386;2023-07-22T12:04:31;23.77;;;5.25;;
27209;SDS011;14721;42.668;23.386;2023-07-22T12:06:58;18.48;;;5.13;;
27209;SDS011;14721;42.668;23.386;2023-07-22T12:09:24;27.17;;;8.73;;
27209;SDS011;14721;42.668;23.386;2023-07-22T12:11:57;15.02;;;4.93;;
27209;SDS011;14721;42.668;23.386;2023-07-22T12:14:24;16.42;;;5.28;;
27209;SDS011;14721;42.668;23.386;2023-07-22T12:16:57;22.23;;;5.70;;
27209;SDS011;14721;42.668;23.386;2023-07-22T12:19:23;12.65;;;4.90;;
27209;SDS011;14721;42.668;23.386;2023-07-22T12:21:49;15.48;;;4.82;;
27209;SDS011;14721;42.668;23.386;2023-07-22T12:24:14;22.08;;;5.43;;
27209;SDS011;14721;42.668;23.386;2023-07-22T12:26:40;21.95;;;5.80;;
27209;SDS011;14721;42.668;23.386;2023-07-22T12:29:07;18.13;;;5.47;;
27209;SDS011;14721;42.668;23.386;2023-07-22T12:31:33;12.35;;;5.63;;
27209;SDS011;14721;42.668;23.386;2023-07-22T12:33:59;16.67;;;5.50;;
27209;SDS011;14721;42.668;23.386;2023-07-22T12:36:24;14.13;;;4.90;;
27209;SDS011;14721;42.668;23.386;2023-07-22T12:38:50;18.50;;;5.22;;
27209;SDS011;14721;42.668;23.386;2023-07-22T12:41:16;18.58;;;5.43;;
27209;SDS011;14721;42.668;23.386;2023-07-22T12:43:42;17.58;;;5.57;;
27209;SDS011;14721;42.668;23.386;2023-07-22T12:46:07;14.30;;;5.18;;
27209;SDS011;14721;42.668;23.386;2023-07-22T12:48:33;16.10;;;5.93;;
27209;SDS011;14721;42.668;23.386;2023-07-22T12:50:58;16.42;;;4.95;;
27209;SDS011;14721;42.668;23.386;2023-07-22T12:53:25;18.27;;;5.00;;
27209;SDS011;14721;42.668;23.386;2023-07-22T12:55:51;14.90;;;5.10;;
27209;SDS011;14721;42.668;23.386;2023-07-22T12:58:16;14.18;;;4.88;;
27209;SDS011;14721;42.668;23.386;2023-07-22T13:00:42;20.00;;;4.80;;
27209;SDS011;14721;42.668;23.386;2023-07-22T13:03:07;20.58;;;5.22;;
27209;SDS011;14721;42.668;23.386;2023-07-22T13:05:33;16.35;;;5.03;;
27209;SDS011;14721;42.668;23.386;2023-07-22T13:07:58;18.17;;;5.50;;
27209;SDS011;14721;42.668;23.386;2023-07-22T13:10:27;17.38;;;5.95;;
27209;SDS011;14721;42.668;23.386;2023-07-22T13:12:57;17.83;;;5.88;;
27209;SDS011;14721;42.668;23.386;2023-07-22T13:15:22;18.45;;;5.05;;
27209;SDS011;14721;42.668;23.386;2023-07-22T13:17:48;13.07;;;4.75;;
27209;SDS011;14721;42.668;23.386;2023-07-22T13:20:13;15.60;;;4.47;;
27209;SDS011;14721;42.668;23.386;2023-07-22T13:22:39;20.70;;;6.22;;
27209;SDS011;14721;42.668;23.386;2023-07-22T13:25:05;18.05;;;5.20;;
27209;SDS011;14721;42.668;23.386;2023-07-22T13:27:31;22.13;;;5.45;;
27209;SDS011;14721;42.668;23.386;2023-07-22T13:29:56;14.85;;;4.90;;
27209;SDS011;14721;42.668;23.386;2023-07-22T13:32:22;17.08;;;7.28;;
27209;SDS011;14721;42.668;23.386;2023-07-22T13:34:48;25.23;;;7.40;;
27209;SDS011;14721;42.668;23.386;2023-07-22T13:37:14;17.02;;;5.28;;
27209;SDS011;14721;42.668;23.386;2023-07-22T13:39:39;18.98;;;6.30;;
27209;SDS011;14721;42.668;23.386;2023-07-22T13:42:05;20.75;;;6.22;;
27209;SDS011;14721;42.668;23.386;2023-07-22T13:44:30;13.93;;;6.05;;
27209;SDS011;14721;42.668;23.386;2023-07-22T13:46:56;23.23;;;5.03;;
27209;SDS011;14721;42.668;23.386;2023-07-22T13:49:21;16.33;;;5.15;;
27209;SDS011;14721;42.668;23.386;2023-07-22T13:51:47;17.50;;;5.05;;
27209;SDS011;14721;42.668;23.386;2023-07-22T13:54:12;16.33;;;6.68;;
27209;SDS011;14721;42.668;23.386;2023-07-22T13:56:38;14.50;;;5.47;;
27209;SDS011;14721;42.668;23.386;2023-07-22T13:59:03;19.75;;;6.05;;
27209;SDS011;14721;42.668;23.386;2023-07-22T14:01:30;20.48;;;6.68;;
27209;SDS011;14721;42.668;23.386;2023-07-22T14:03:56;22.98;;;4.55;;
27209;SDS011;14721;42.668;23.386;2023-07-22T14:06:22;19.70;;;4.50;;
27209;SDS011;14721;42.668;23.386;2023-07-22T14:08:48;21.63;;;6.30;;
27209;SDS011;14721;42.668;23.386;2023-07-22T14:11:13;23.42;;;5.45;;
27209;SDS011;14721;42.668;23.386;2023-07-22T14:13:39;23.40;;;5.40;;
27209;SDS011;14721;42.668;23.386;2023-07-22T14:16:04;21.52;;;5.13;;
27209;SDS011;14721;42.668;23.386;2023-07-22T14:18:30;19.67;;;5.93;;
27209;SDS011;14721;42.668;23.386;2023-07-22T14:20:55;15.98;;;4.88;;
27209;SDS011;14721;42.668;23.386;2023-07-22T14:23:21;18.60;;;5.00;;
27209;SDS011;14721;42.668;23.386;2023-07-22T14:25:46;12.35;;;5.07;;
27209;SDS011;14721;42.668;23.386;2023-07-22T14:28:12;20.73;;;4.93;;
27209;SDS011;14721;42.668;23.386;2023-07-22T14:30:38;16.08;;;5.40;;
27209;SDS011;14721;42.668;23.386;2023-07-22T14:33:03;12.10;;;5.53;;
27209;SDS011;14721;42.668;23.386;2023-07-22T14:35:29;22.35;;;5.57;;